sensor_id;sensor_type;location;lat;lon;timestamp;temperature;humidity
44851;DHT22;30583;48.714;9.386;2024-01-16T00:00:00;2.50;60.70
44851;DHT22;30583;48.714;9.386;2024-01-16T00:02:25;1.90;61.40
44851;DHT22;30583;48.714;9.386;2024-01-16T00:04:51;1.70;62.30
44851;DHT22;30583;48.714;9.386;2024-01-16T00:07:16;2.20;61.70
44851;DHT22;30583;48.714;9.386;2024-01-16T00:09:42;2.20;61.00
44851;DHT22;30583;48.714;9.386;2024-01-16T00:12:08;2.40;60.90
44851;DHT22;30583;48.714;9.386;2024-01-16T00:14:37;2.10;61.20
44851;DHT22;30583;48.714;9.386;2024-01-16T00:17:02;2.10;61.20
44851;DHT22;30583;48.714;9.386;2024-01-16T00:19:28;2.10;61.10
44851;DHT22;30583;48.714;9.386;2024-01-16T00:21:54;2.20;61.10
44851;DHT22;30583;48.714;9.386;2024-01-16T00:24:20;2.30;60.90
44851;DHT22;30583;48.714;9.386;2024-01-16T00:26:45;2.50;60.80
44851;DHT22;30583;48.714;9.386;2024-01-16T00:29:11;2.40;60.90
44851;DHT22;30583;48.714;9.386;2024-01-16T00:31:41;2.40;60.60
44851;DHT22;30583;48.714;9.386;2024-01-16T00:34:06;2.40;60.40
44851;DHT22;30583;48.714;9.386;2024-01-16T00:36:32;2.30;61.10
44851;DHT22;30583;48.714;9.386;2024-01-16T00:38:58;2.40;60.70
44851;DHT22;30583;48.714;9.386;2024-01-16T00:41:24;2.40;60.80
44851;DHT22;30583;48.714;9.386;2024-01-16T00:43:49;2.50;61.00
44851;DHT22;30583;48.714;9.386;2024-01-16T00:46:15;2.60;60.80
44851;DHT22;30583;48.714;9.386;2024-01-16T00:48:40;2.70;61.00
44851;DHT22;30583;48.714;9.386;2024-01-16T00:51:06;2.60;60.80
44851;DHT22;30583;48.714;9.386;2024-01-16T00:53:32;2.60;60.50
44851;DHT22;30583;48.714;9.386;2024-01-16T00:55:57;2.40;60.50
44851;DHT22;30583;48.714;9.386;2024-01-16T00:58:23;2.30;60.80
44851;DHT22;30583;48.714;9.386;2024-01-16T01:00:49;2.30;61.30
44851;DHT22;30583;48.714;9.386;2024-01-16T01:03:15;2.50;61.10
44851;DHT22;30583;48.714;9.386;2024-01-16T01:05:40;2.60;60.80
44851;DHT22;30583;48.714;9.386;2024-01-16T01:08:06;2.50;61.20
44851;DHT22;30583;48.714;9.386;2024-01-16T01:10:32;2.50;60.80
44851;DHT22;30583;48.714;9.386;2024-01-16T01:12:58;2.50;60.80
44851;DHT22;30583;48.714;9.386;2024-01-16T01:15:23;2.50;60.50
44851;DHT22;30583;48.714;9.386;2024-01-16T01:17:50;2.40;60.30
44851;DHT22;30583;48.714;9.386;2024-01-16T01:20:17;2.30;60.50
44851;DHT22;30583;48.714;9.386;2024-01-16T01:22:44;2.20;60.90
44851;DHT22;30583;48.714;9.386;2024-01-16T01:25:10;2.00;62.30
44851;DHT22;30583;48.714;9.386;2024-01-16T01:27:37;1.70;63.40
44851;DHT22;30583;48.714;9.386;2024-01-16T01:30:02;1.80;63.10
44851;DHT22;30583;48.714;9.386;2024-01-16T01:32:29;1.60;63.20
44851;DHT22;30583;48.714;9.386;2024-01-16T01:34:54;1.60;63.20
44851;DHT22;30583;48.714;9.386;2024-01-16T01:37:20;1.30;63.80
44851;DHT22;30583;48.714;9.386;2024-01-16T01:39:46;1.80;63.90
44851;DHT22;30583;48.714;9.386;2024-01-16T01:42:11;1.70;63.80
44851;DHT22;30583;48.714;9.386;2024-01-16T01:44:37;1.60;64.10
44851;DHT22;30583;48.714;9.386;2024-01-16T01:47:03;2.00;63.10
44851;DHT22;30583;48.714;9.386;2024-01-16T01:49:30;1.70;62.90
44851;DHT22;30583;48.714;9.386;2024-01-16T01:51:56;1.30;64.80
44851;DHT22;30583;48.714;9.386;2024-01-16T01:54:22;1.30;64.50
44851;DHT22;30583;48.714;9.386;2024-01-16T01:56:48;1.40;64.20
44851;DHT22;30583;48.714;9.386;2024-01-16T01:59:14;1.30;64.30
44851;DHT22;30583;48.714;9.386;2024-01-16T02:01:47;1.60;64.00
44851;DHT22;30583;48.714;9.386;2024-01-16T02:04:17;1.50;64.10
44851;DHT22;30583;48.714;9.386;2024-01-16T02:06:43;1.10;64.50
44851;DHT22;30583;48.714;9.386;2024-01-16T02:09:10;1.20;65.30
44851;DHT22;30583;48.714;9.386;2024-01-16T02:11:35;1.30;64.50
44851;DHT22;30583;48.714;9.386;2024-01-16T02:14:01;1.50;64.40
44851;DHT22;30583;48.714;9.386;2024-01-16T02:16:39;1.80;62.90
44851;DHT22;30583;48.714;9.386;2024-01-16T02:19:05;1.90;62.50
44851;DHT22;30583;48.714;9.386;2024-01-16T02:21:48;1.70;62.80
44851;DHT22;30583;48.714;9.386;2024-01-16T02:24:17;2.10;62.00
44851;DHT22;30583;48.714;9.386;2024-01-16T02:26:44;2.20;61.70
44851;DHT22;30583;48.714;9.386;2024-01-16T02:29:09;2.30;61.80
44851;DHT22;30583;48.714;9.386;2024-01-16T02:31:35;2.10;61.70
44851;DHT22;30583;48.714;9.386;2024-01-16T02:34:01;2.10;61.00
44851;DHT22;30583;48.714;9.386;2024-01-16T02:36:27;1.10;63.30
44851;DHT22;30583;48.714;9.386;2024-01-16T02:38:54;1.10;64.80
44851;DHT22;30583;48.714;9.386;2024-01-16T02:41:20;1.80;63.80
44851;DHT22;30583;48.714;9.386;2024-01-16T02:43:46;1.30;64.00
44851;DHT22;30583;48.714;9.386;2024-01-16T02:46:12;1.20;64.70
44851;DHT22;30583;48.714;9.386;2024-01-16T02:48:38;1.90;63.60
44851;DHT22;30583;48.714;9.386;2024-01-16T02:51:04;2.10;63.00
44851;DHT22;30583;48.714;9.386;2024-01-16T02:53:31;2.10;62.60
44851;DHT22;30583;48.714;9.386;2024-01-16T02:55:56;2.20;62.50
44851;DHT22;30583;48.714;9.386;2024-01-16T02:58:24;2.10;62.40
44851;DHT22;30583;48.714;9.386;2024-01-16T03:00:50;2.00;63.00
44851;DHT22;30583;48.714;9.386;2024-01-16T03:03:16;2.00;63.10
44851;DHT22;30583;48.714;9.386;2024-01-16T03:05:42;1.10;64.40
44851;DHT22;30583;48.714;9.386;2024-01-16T03:08:07;1.50;65.20
44851;DHT22;30583;48.714;9.386;2024-01-16T03:10:33;1.90;64.10
44851;DHT22;30583;48.714;9.386;2024-01-16T03:12:59;1.90;63.90
44851;DHT22;30583;48.714;9.386;2024-01-16T03:15:24;1.80;63.50
44851;DHT22;30583;48.714;9.386;2024-01-16T03:17:50;1.70;63.40
44851;DHT22;30583;48.714;9.386;2024-01-16T03:20:17;1.50;63.90
44851;DHT22;30583;48.714;9.386;2024-01-16T03:22:44;0.80;65.30
44851;DHT22;30583;48.714;9.386;2024-01-16T03:25:09;1.20;65.10
44851;DHT22;30583;48.714;9.386;2024-01-16T03:27:36;1.00;64.70
44851;DHT22;30583;48.714;9.386;2024-01-16T03:30:02;1.00;64.20
44851;DHT22;30583;48.714;9.386;2024-01-16T03:32:28;1.30;64.20
44851;DHT22;30583;48.714;9.386;2024-01-16T03:34:53;1.30;62.80
44851;DHT22;30583;48.714;9.386;2024-01-16T03:37:19;1.20;63.90
44851;DHT22;30583;48.714;9.386;2024-01-16T03:39:45;1.20;63.20
44851;DHT22;30583;48.714;9.386;2024-01-16T03:42:10;0.80;64.10
44851;DHT22;30583;48.714;9.386;2024-01-16T03:44:39;0.70;65.10
44851;DHT22;30583;48.714;9.386;2024-01-16T03:47:05;1.30;63.90
44851;DHT22;30583;48.714;9.386;2024-01-16T03:49:31;1.40;63.30
44851;DHT22;30583;48.714;9.386;2024-01-16T03:51:57;1.60;62.50
44851;DHT22;30583;48.714;9.386;2024-01-16T03:54:22;1.70;62.30
44851;DHT22;30583;48.714;9.386;2024-01-16T03:56:48;1.40;63.10
44851;DHT22;30583;48.714;9.386;2024-01-16T03:59:13;1.60;63.00
44851;DHT22;30583;48.714;9.386;2024-01-16T04:01:39;1.30;63.40
44851;DHT22;30583;48.714;9.386;2024-01-16T04:04:04;1.40;62.30
44851;DHT22;30583;48.714;9.386;2024-01-16T04:06:32;1.20;63.00
44851;DHT22;30583;48.714;9.386;2024-01-16T04:08:58;1.20;63.60
44851;DHT22;30583;48.714;9.386;2024-01-16T04:11:23;1.60;62.20
44851;DHT22;30583;48.714;9.386;2024-01-16T04:13:49;1.20;62.00
44851;DHT22;30583;48.714;9.386;2024-01-16T04:16:15;0.70;64.40
44851;DHT22;30583;48.714;9.386;2024-01-16T04:18:42;0.40;65.00
44851;DHT22;30583;48.714;9.386;2024-01-16T04:21:08;0.90;64.40
44851;DHT22;30583;48.714;9.386;2024-01-16T04:23:33;0.80;63.90
44851;DHT22;30583;48.714;9.386;2024-01-16T04:25:59;0.90;64.00
44851;DHT22;30583;48.714;9.386;2024-01-16T04:28:25;1.10;63.20
44851;DHT22;30583;48.714;9.386;2024-01-16T04:30:51;1.30;62.20
44851;DHT22;30583;48.714;9.386;2024-01-16T04:33:17;1.10;61.80
44851;DHT22;30583;48.714;9.386;2024-01-16T04:35:42;1.20;62.10
44851;DHT22;30583;48.714;9.386;2024-01-16T04:38:08;1.10;61.90
44851;DHT22;30583;48.714;9.386;2024-01-16T04:40:33;0.90;62.30
44851;DHT22;30583;48.714;9.386;2024-01-16T04:42:59;1.20;61.70
44851;DHT22;30583;48.714;9.386;2024-01-16T04:45:25;0.90;61.30
44851;DHT22;30583;48.714;9.386;2024-01-16T04:47:50;0.20;63.70
44851;DHT22;30583;48.714;9.386;2024-01-16T04:50:16;0.30;64.70
44851;DHT22;30583;48.714;9.386;2024-01-16T04:52:42;0.50;63.70
44851;DHT22;30583;48.714;9.386;2024-01-16T04:55:08;0.40;64.40
44851;DHT22;30583;48.714;9.386;2024-01-16T04:57:34;0.00;64.60
44851;DHT22;30583;48.714;9.386;2024-01-16T05:00:00;0.00;65.90
44851;DHT22;30583;48.714;9.386;2024-01-16T05:02:25;0.70;64.20
44851;DHT22;30583;48.714;9.386;2024-01-16T05:04:51;0.10;63.70
44851;DHT22;30583;48.714;9.386;2024-01-16T05:07:18;0.50;63.50
44851;DHT22;30583;48.714;9.386;2024-01-16T05:09:46;0.70;62.60
44851;DHT22;30583;48.714;9.386;2024-01-16T05:12:11;0.50;63.00
44851;DHT22;30583;48.714;9.386;2024-01-16T05:14:37;0.50;62.40
44851;DHT22;30583;48.714;9.386;2024-01-16T05:17:03;0.50;62.40
44851;DHT22;30583;48.714;9.386;2024-01-16T05:19:28;0.30;62.50
44851;DHT22;30583;48.714;9.386;2024-01-16T05:21:54;0.10;63.30
44851;DHT22;30583;48.714;9.386;2024-01-16T05:24:20;0.30;63.30
44851;DHT22;30583;48.714;9.386;2024-01-16T05:26:45;0.20;63.10
44851;DHT22;30583;48.714;9.386;2024-01-16T05:29:11;0.60;62.20
44851;DHT22;30583;48.714;9.386;2024-01-16T05:31:43;0.40;62.90
44851;DHT22;30583;48.714;9.386;2024-01-16T05:34:09;0.30;63.30
44851;DHT22;30583;48.714;9.386;2024-01-16T05:36:35;0.80;61.40
44851;DHT22;30583;48.714;9.386;2024-01-16T05:39:00;0.90;61.40
44851;DHT22;30583;48.714;9.386;2024-01-16T05:41:26;0.80;60.90
44851;DHT22;30583;48.714;9.386;2024-01-16T05:43:52;0.70;61.20
44851;DHT22;30583;48.714;9.386;2024-01-16T05:46:18;0.80;61.10
44851;DHT22;30583;48.714;9.386;2024-01-16T05:48:44;0.90;61.10
44851;DHT22;30583;48.714;9.386;2024-01-16T05:51:09;0.80;60.60
44851;DHT22;30583;48.714;9.386;2024-01-16T05:53:35;1.10;60.10
44851;DHT22;30583;48.714;9.386;2024-01-16T05:56:01;1.00;60.20
44851;DHT22;30583;48.714;9.386;2024-01-16T05:58:26;0.30;62.00
44851;DHT22;30583;48.714;9.386;2024-01-16T06:00:52;0.70;61.10
44851;DHT22;30583;48.714;9.386;2024-01-16T06:03:17;0.50;60.90
44851;DHT22;30583;48.714;9.386;2024-01-16T06:05:43;0.70;60.80
44851;DHT22;30583;48.714;9.386;2024-01-16T06:08:09;0.80;60.60
44851;DHT22;30583;48.714;9.386;2024-01-16T06:10:34;0.80;60.30
44851;DHT22;30583;48.714;9.386;2024-01-16T06:13:00;0.60;61.30
44851;DHT22;30583;48.714;9.386;2024-01-16T06:15:26;0.70;61.70
44851;DHT22;30583;48.714;9.386;2024-01-16T06:17:51;1.00;61.00
44851;DHT22;30583;48.714;9.386;2024-01-16T06:20:17;0.90;60.70
44851;DHT22;30583;48.714;9.386;2024-01-16T06:22:42;0.90;61.30
44851;DHT22;30583;48.714;9.386;2024-01-16T06:25:08;0.80;61.90
44851;DHT22;30583;48.714;9.386;2024-01-16T06:27:33;0.80;62.20
44851;DHT22;30583;48.714;9.386;2024-01-16T06:29:59;0.80;61.90
44851;DHT22;30583;48.714;9.386;2024-01-16T06:32:25;0.80;61.90
44851;DHT22;30583;48.714;9.386;2024-01-16T06:34:50;0.50;63.00
44851;DHT22;30583;48.714;9.386;2024-01-16T06:37:16;0.50;63.10
44851;DHT22;30583;48.714;9.386;2024-01-16T06:39:41;0.30;63.10
44851;DHT22;30583;48.714;9.386;2024-01-16T06:42:07;0.50;62.80
44851;DHT22;30583;48.714;9.386;2024-01-16T06:44:32;0.50;63.00
44851;DHT22;30583;48.714;9.386;2024-01-16T06:46:58;0.20;63.30
44851;DHT22;30583;48.714;9.386;2024-01-16T06:49:24;0.00;63.50
44851;DHT22;30583;48.714;9.386;2024-01-16T06:51:49;0.30;63.30
44851;DHT22;30583;48.714;9.386;2024-01-16T06:54:15;0.40;63.10
44851;DHT22;30583;48.714;9.386;2024-01-16T06:56:40;0.70;62.40
44851;DHT22;30583;48.714;9.386;2024-01-16T06:59:06;0.70;62.30
44851;DHT22;30583;48.714;9.386;2024-01-16T07:01:31;0.60;62.90
44851;DHT22;30583;48.714;9.386;2024-01-16T07:03:57;0.50;63.30
44851;DHT22;30583;48.714;9.386;2024-01-16T07:06:23;0.50;63.40
44851;DHT22;30583;48.714;9.386;2024-01-16T07:08:48;0.70;63.10
44851;DHT22;30583;48.714;9.386;2024-01-16T07:11:14;0.70;63.00
44851;DHT22;30583;48.714;9.386;2024-01-16T07:13:40;0.80;62.80
44851;DHT22;30583;48.714;9.386;2024-01-16T07:16:09;0.70;62.60
44851;DHT22;30583;48.714;9.386;2024-01-16T07:18:37;0.50;63.70
44851;DHT22;30583;48.714;9.386;2024-01-16T07:21:02;0.70;63.60
44851;DHT22;30583;48.714;9.386;2024-01-16T07:23:29;0.90;63.00
44851;DHT22;30583;48.714;9.386;2024-01-16T07:25:55;7.90;84.00
44851;DHT22;30583;48.714;9.386;2024-01-16T07:28:20;12.40;59.00
44851;DHT22;30583;48.714;9.386;2024-01-16T07:30:47;13.00;48.50
44851;DHT22;30583;48.714;9.386;2024-01-16T07:33:13;9.50;45.10
44851;DHT22;30583;48.714;9.386;2024-01-16T07:35:38;5.50;53.50
44851;DHT22;30583;48.714;9.386;2024-01-16T07:38:06;3.90;55.40
44851;DHT22;30583;48.714;9.386;2024-01-16T07:40:32;2.90;56.20
44851;DHT22;30583;48.714;9.386;2024-01-16T07:42:57;2.00;58.70
44851;DHT22;30583;48.714;9.386;2024-01-16T07:45:24;2.00;59.10
44851;DHT22;30583;48.714;9.386;2024-01-16T07:47:49;2.10;58.60
44851;DHT22;30583;48.714;9.386;2024-01-16T07:50:15;2.20;58.40
44851;DHT22;30583;48.714;9.386;2024-01-16T07:52:40;2.10;57.00
44851;DHT22;30583;48.714;9.386;2024-01-16T07:55:06;1.20;58.30
44851;DHT22;30583;48.714;9.386;2024-01-16T07:57:32;1.20;59.40
44851;DHT22;30583;48.714;9.386;2024-01-16T07:59:58;1.20;58.80
44851;DHT22;30583;48.714;9.386;2024-01-16T08:02:32;0.70;59.90
44851;DHT22;30583;48.714;9.386;2024-01-16T08:04:58;0.70;60.60
44851;DHT22;30583;48.714;9.386;2024-01-16T08:07:24;0.60;60.80
44851;DHT22;30583;48.714;9.386;2024-01-16T08:09:49;0.70;60.20
44851;DHT22;30583;48.714;9.386;2024-01-16T08:12:15;1.20;59.50
44851;DHT22;30583;48.714;9.386;2024-01-16T08:14:41;0.30;60.20
44851;DHT22;30583;48.714;9.386;2024-01-16T08:17:08;0.30;61.40
44851;DHT22;30583;48.714;9.386;2024-01-16T08:19:34;0.40;61.60
44851;DHT22;30583;48.714;9.386;2024-01-16T08:21:59;0.20;61.70
44851;DHT22;30583;48.714;9.386;2024-01-16T08:24:25;0.20;61.90
44851;DHT22;30583;48.714;9.386;2024-01-16T08:26:50;0.50;61.90
44851;DHT22;30583;48.714;9.386;2024-01-16T08:29:16;0.60;60.90
44851;DHT22;30583;48.714;9.386;2024-01-16T08:31:41;0.70;60.60
44851;DHT22;30583;48.714;9.386;2024-01-16T08:34:07;1.20;59.60
44851;DHT22;30583;48.714;9.386;2024-01-16T08:36:33;1.10;60.00
44851;DHT22;30583;48.714;9.386;2024-01-16T08:38:58;1.20;59.70
44851;DHT22;30583;48.714;9.386;2024-01-16T08:41:24;1.20;59.00
44851;DHT22;30583;48.714;9.386;2024-01-16T08:43:49;1.20;59.10
44851;DHT22;30583;48.714;9.386;2024-01-16T08:46:16;0.90;59.90
44851;DHT22;30583;48.714;9.386;2024-01-16T08:48:42;1.20;60.20
44851;DHT22;30583;48.714;9.386;2024-01-16T08:51:10;0.90;59.80
44851;DHT22;30583;48.714;9.386;2024-01-16T08:53:37;1.10;60.20
44851;DHT22;30583;48.714;9.386;2024-01-16T08:56:03;1.10;59.30
44851;DHT22;30583;48.714;9.386;2024-01-16T08:58:32;1.10;58.80
44851;DHT22;30583;48.714;9.386;2024-01-16T09:01:02;1.10;59.20
44851;DHT22;30583;48.714;9.386;2024-01-16T09:03:28;1.00;59.70
44851;DHT22;30583;48.714;9.386;2024-01-16T09:05:53;1.30;58.50
44851;DHT22;30583;48.714;9.386;2024-01-16T09:08:19;1.50;58.50
44851;DHT22;30583;48.714;9.386;2024-01-16T09:10:44;1.40;58.10
44851;DHT22;30583;48.714;9.386;2024-01-16T09:13:10;1.30;58.80
44851;DHT22;30583;48.714;9.386;2024-01-16T09:15:36;1.00;58.40
44851;DHT22;30583;48.714;9.386;2024-01-16T09:18:02;1.20;58.10
44851;DHT22;30583;48.714;9.386;2024-01-16T09:20:28;1.50;58.00
44851;DHT22;30583;48.714;9.386;2024-01-16T09:22:53;1.70;57.80
44851;DHT22;30583;48.714;9.386;2024-01-16T09:25:19;1.50;58.30
44851;DHT22;30583;48.714;9.386;2024-01-16T09:27:45;1.60;58.50
44851;DHT22;30583;48.714;9.386;2024-01-16T09:30:11;1.20;59.10
44851;DHT22;30583;48.714;9.386;2024-01-16T09:32:38;1.40;59.60
44851;DHT22;30583;48.714;9.386;2024-01-16T09:35:03;1.90;57.90
44851;DHT22;30583;48.714;9.386;2024-01-16T09:37:31;1.60;57.70
44851;DHT22;30583;48.714;9.386;2024-01-16T09:39:57;1.70;58.20
44851;DHT22;30583;48.714;9.386;2024-01-16T09:42:23;1.50;57.80
44851;DHT22;30583;48.714;9.386;2024-01-16T09:44:50;1.70;58.40
44851;DHT22;30583;48.714;9.386;2024-01-16T09:47:17;1.70;57.40
44851;DHT22;30583;48.714;9.386;2024-01-16T09:49:46;2.10;56.80
44851;DHT22;30583;48.714;9.386;2024-01-16T09:52:11;2.20;56.40
44851;DHT22;30583;48.714;9.386;2024-01-16T09:54:37;2.40;56.40
44851;DHT22;30583;48.714;9.386;2024-01-16T09:57:06;2.50;56.20
44851;DHT22;30583;48.714;9.386;2024-01-16T09:59:33;2.70;55.40
44851;DHT22;30583;48.714;9.386;2024-01-16T10:02:01;2.80;55.10
44851;DHT22;30583;48.714;9.386;2024-01-16T10:04:31;3.00;54.10
44851;DHT22;30583;48.714;9.386;2024-01-16T10:06:57;3.10;53.80
44851;DHT22;30583;48.714;9.386;2024-01-16T10:09:23;3.20;53.40
44851;DHT22;30583;48.714;9.386;2024-01-16T10:11:50;3.40;52.60
44851;DHT22;30583;48.714;9.386;2024-01-16T10:14:17;3.40;52.40
44851;DHT22;30583;48.714;9.386;2024-01-16T10:17:02;3.60;51.60
44851;DHT22;30583;48.714;9.386;2024-01-16T10:19:30;3.90;50.40
44851;DHT22;30583;48.714;9.386;2024-01-16T10:22:05;3.70;51.10
44851;DHT22;30583;48.714;9.386;2024-01-16T10:24:33;4.20;50.60
44851;DHT22;30583;48.714;9.386;2024-01-16T10:27:01;4.30;49.80
44851;DHT22;30583;48.714;9.386;2024-01-16T10:29:31;3.70;50.30
44851;DHT22;30583;48.714;9.386;2024-01-16T10:32:00;4.20;51.10
44851;DHT22;30583;48.714;9.386;2024-01-16T10:34:26;4.30;48.70
44851;DHT22;30583;48.714;9.386;2024-01-16T10:36:58;4.20;48.30
44851;DHT22;30583;48.714;9.386;2024-01-16T10:39:25;3.70;49.60
44851;DHT22;30583;48.714;9.386;2024-01-16T10:41:55;4.70;48.50
44851;DHT22;30583;48.714;9.386;2024-01-16T10:44:21;5.10;47.40
44851;DHT22;30583;48.714;9.386;2024-01-16T10:46:47;5.20;47.50
44851;DHT22;30583;48.714;9.386;2024-01-16T10:49:12;5.60;46.90
44851;DHT22;30583;48.714;9.386;2024-01-16T10:51:38;5.50;46.50
44851;DHT22;30583;48.714;9.386;2024-01-16T10:54:12;5.60;47.00
44851;DHT22;30583;48.714;9.386;2024-01-16T10:56:44;6.00;45.90
44851;DHT22;30583;48.714;9.386;2024-01-16T11:01:51;5.00;52.20
44851;DHT22;30583;48.714;9.386;2024-01-16T11:04:18;5.60;52.90
44851;DHT22;30583;48.714;9.386;2024-01-16T11:06:46;4.80;52.00
44851;DHT22;30583;48.714;9.386;2024-01-16T11:09:13;4.10;60.30
44851;DHT22;30583;48.714;9.386;2024-01-16T11:11:46;4.20;60.20
44851;DHT22;30583;48.714;9.386;2024-01-16T11:14:13;4.40;58.50
44851;DHT22;30583;48.714;9.386;2024-01-16T11:16:39;5.70;52.00
44851;DHT22;30583;48.714;9.386;2024-01-16T11:19:08;7.00;57.70
44851;DHT22;30583;48.714;9.386;2024-01-16T11:21:35;6.90;48.00
44851;DHT22;30583;48.714;9.386;2024-01-16T11:24:02;7.80;43.80
44851;DHT22;30583;48.714;9.386;2024-01-16T11:28:58;6.50;45.00
44851;DHT22;30583;48.714;9.386;2024-01-16T11:31:34;6.30;44.00
44851;DHT22;30583;48.714;9.386;2024-01-16T11:34:02;6.80;44.50
44851;DHT22;30583;48.714;9.386;2024-01-16T11:39:17;7.50;42.40
44851;DHT22;30583;48.714;9.386;2024-01-16T11:41:51;8.40;49.40
44851;DHT22;30583;48.714;9.386;2024-01-16T11:44:46;8.40;41.10
44851;DHT22;30583;48.714;9.386;2024-01-16T11:47:20;7.00;44.00
44851;DHT22;30583;48.714;9.386;2024-01-16T11:49:47;7.70;42.30
44851;DHT22;30583;48.714;9.386;2024-01-16T11:52:13;8.20;40.90
44851;DHT22;30583;48.714;9.386;2024-01-16T11:54:40;8.50;40.80
44851;DHT22;30583;48.714;9.386;2024-01-16T11:57:34;8.80;39.40
44851;DHT22;30583;48.714;9.386;2024-01-16T12:00:02;7.20;39.70
44851;DHT22;30583;48.714;9.386;2024-01-16T12:02:55;8.20;39.90
44851;DHT22;30583;48.714;9.386;2024-01-16T12:05:21;9.00;38.30
44851;DHT22;30583;48.714;9.386;2024-01-16T12:07:49;8.40;38.80
44851;DHT22;30583;48.714;9.386;2024-01-16T12:10:16;8.40;38.00
44851;DHT22;30583;48.714;9.386;2024-01-16T12:12:42;9.00;37.70
44851;DHT22;30583;48.714;9.386;2024-01-16T12:15:20;9.50;37.30
44851;DHT22;30583;48.714;9.386;2024-01-16T12:17:57;9.20;36.50
44851;DHT22;30583;48.714;9.386;2024-01-16T12:20:30;9.50;38.90
44851;DHT22;30583;48.714;9.386;2024-01-16T12:23:08;9.80;37.50
44851;DHT22;30583;48.714;9.386;2024-01-16T12:25:36;9.90;39.70
44851;DHT22;30583;48.714;9.386;2024-01-16T12:28:04;10.60;39.50
44851;DHT22;30583;48.714;9.386;2024-01-16T12:30:32;10.40;36.30
44851;DHT22;30583;48.714;9.386;2024-01-16T12:33:11;10.60;37.80
44851;DHT22;30583;48.714;9.386;2024-01-16T12:35:42;10.40;37.20
44851;DHT22;30583;48.714;9.386;2024-01-16T12:38:09;10.50;35.20
44851;DHT22;30583;48.714;9.386;2024-01-16T12:40:36;10.80;34.30
44851;DHT22;30583;48.714;9.386;2024-01-16T12:43:06;9.40;36.20
44851;DHT22;30583;48.714;9.386;2024-01-16T12:45:32;9.90;36.00
44851;DHT22;30583;48.714;9.386;2024-01-16T12:48:00;9.90;35.90
44851;DHT22;30583;48.714;9.386;2024-01-16T12:50:27;10.40;35.80
44851;DHT22;30583;48.714;9.386;2024-01-16T12:53:08;10.70;35.30
44851;DHT22;30583;48.714;9.386;2024-01-16T12:55:36;11.30;34.20
44851;DHT22;30583;48.714;9.386;2024-01-16T12:58:19;11.70;33.40
44851;DHT22;30583;48.714;9.386;2024-01-16T13:00:46;11.70;32.70
44851;DHT22;30583;48.714;9.386;2024-01-16T13:03:16;11.90;33.00
44851;DHT22;30583;48.714;9.386;2024-01-16T13:05:43;12.10;31.90
44851;DHT22;30583;48.714;9.386;2024-01-16T13:08:09;12.20;31.70
44851;DHT22;30583;48.714;9.386;2024-01-16T13:10:34;12.40;32.10
44851;DHT22;30583;48.714;9.386;2024-01-16T13:13:21;12.60;32.10
44851;DHT22;30583;48.714;9.386;2024-01-16T13:15:47;12.60;30.90
44851;DHT22;30583;48.714;9.386;2024-01-16T13:18:22;12.20;30.90
44851;DHT22;30583;48.714;9.386;2024-01-16T13:20:52;12.70;31.00
44851;DHT22;30583;48.714;9.386;2024-01-16T13:23:19;13.00;30.80
44851;DHT22;30583;48.714;9.386;2024-01-16T13:25:46;12.70;30.40
44851;DHT22;30583;48.714;9.386;2024-01-16T13:28:16;12.50;31.30
44851;DHT22;30583;48.714;9.386;2024-01-16T13:30:43;11.90;30.90
44851;DHT22;30583;48.714;9.386;2024-01-16T13:33:09;12.00;30.00
44851;DHT22;30583;48.714;9.386;2024-01-16T13:35:37;11.80;30.70
44851;DHT22;30583;48.714;9.386;2024-01-16T13:38:03;12.60;30.00
44851;DHT22;30583;48.714;9.386;2024-01-16T13:40:29;12.70;29.10
44851;DHT22;30583;48.714;9.386;2024-01-16T13:42:55;11.90;30.30
44851;DHT22;30583;48.714;9.386;2024-01-16T13:45:21;12.70;29.80
44851;DHT22;30583;48.714;9.386;2024-01-16T13:47:46;12.40;28.90
44851;DHT22;30583;48.714;9.386;2024-01-16T13:50:12;11.40;30.70
44851;DHT22;30583;48.714;9.386;2024-01-16T13:52:38;12.50;30.00
44851;DHT22;30583;48.714;9.386;2024-01-16T13:55:07;12.50;29.90
44851;DHT22;30583;48.714;9.386;2024-01-16T13:57:33;12.70;28.80
44851;DHT22;30583;48.714;9.386;2024-01-16T14:00:01;12.70;29.20
44851;DHT22;30583;48.714;9.386;2024-01-16T14:02:28;12.90;29.40
44851;DHT22;30583;48.714;9.386;2024-01-16T14:04:53;12.90;29.00
44851;DHT22;30583;48.714;9.386;2024-01-16T14:07:19;12.70;29.40
44851;DHT22;30583;48.714;9.386;2024-01-16T14:09:44;11.90;30.00
44851;DHT22;30583;48.714;9.386;2024-01-16T14:12:10;12.90;29.50
44851;DHT22;30583;48.714;9.386;2024-01-16T14:14:36;13.10;29.10
44851;DHT22;30583;48.714;9.386;2024-01-16T14:17:03;12.80;29.30
44851;DHT22;30583;48.714;9.386;2024-01-16T14:19:29;12.50;29.70
44851;DHT22;30583;48.714;9.386;2024-01-16T14:21:56;12.30;30.10
44851;DHT22;30583;48.714;9.386;2024-01-16T14:24:21;12.90;30.00
44851;DHT22;30583;48.714;9.386;2024-01-16T14:26:47;12.80;28.90
44851;DHT22;30583;48.714;9.386;2024-01-16T14:29:13;12.70;29.40
44851;DHT22;30583;48.714;9.386;2024-01-16T14:31:39;12.00;29.00
44851;DHT22;30583;48.714;9.386;2024-01-16T14:34:10;12.40;29.80
44851;DHT22;30583;48.714;9.386;2024-01-16T14:36:39;12.80;29.30
44851;DHT22;30583;48.714;9.386;2024-01-16T14:39:05;12.70;29.20
44851;DHT22;30583;48.714;9.386;2024-01-16T14:41:31;12.40;29.30
44851;DHT22;30583;48.714;9.386;2024-01-16T14:43:57;12.40;29.60
44851;DHT22;30583;48.714;9.386;2024-01-16T14:46:23;12.10;29.00
44851;DHT22;30583;48.714;9.386;2024-01-16T14:48:48;10.90;31.40
44851;DHT22;30583;48.714;9.386;2024-01-16T14:51:14;11.00;31.40
44851;DHT22;30583;48.714;9.386;2024-01-16T14:53:40;11.60;30.50
44851;DHT22;30583;48.714;9.386;2024-01-16T14:56:05;11.50;30.30
44851;DHT22;30583;48.714;9.386;2024-01-16T14:58:31;11.70;30.10
44851;DHT22;30583;48.714;9.386;2024-01-16T15:00:57;10.90;31.10
44851;DHT22;30583;48.714;9.386;2024-01-16T15:03:24;10.10;32.90
44851;DHT22;30583;48.714;9.386;2024-01-16T15:05:50;10.80;32.70
44851;DHT22;30583;48.714;9.386;2024-01-16T15:08:17;11.20;31.90
44851;DHT22;30583;48.714;9.386;2024-01-16T15:10:43;10.70;32.40
44851;DHT22;30583;48.714;9.386;2024-01-16T15:13:09;9.60;34.30
44851;DHT22;30583;48.714;9.386;2024-01-16T15:15:35;8.10;37.00
44851;DHT22;30583;48.714;9.386;2024-01-16T15:18:02;8.00;37.00
44851;DHT22;30583;48.714;9.386;2024-01-16T15:20:27;7.60;37.40
44851;DHT22;30583;48.714;9.386;2024-01-16T15:22:53;7.60;37.60
44851;DHT22;30583;48.714;9.386;2024-01-16T15:25:19;7.50;38.10
44851;DHT22;30583;48.714;9.386;2024-01-16T15:27:49;7.20;38.80
44851;DHT22;30583;48.714;9.386;2024-01-16T15:30:20;6.60;40.60
44851;DHT22;30583;48.714;9.386;2024-01-16T15:32:50;6.70;40.30
44851;DHT22;30583;48.714;9.386;2024-01-16T15:35:15;6.80;41.10
44851;DHT22;30583;48.714;9.386;2024-01-16T15:37:41;6.90;40.70
44851;DHT22;30583;48.714;9.386;2024-01-16T15:40:08;6.40;41.30
44851;DHT22;30583;48.714;9.386;2024-01-16T15:42:34;6.30;42.00
44851;DHT22;30583;48.714;9.386;2024-01-16T15:45:07;6.00;42.40
44851;DHT22;30583;48.714;9.386;2024-01-16T15:47:33;5.90;43.20